Campania, Georgia
Current Conditions -  °F | °C
As of 9:15 PM on Friday 19 Dec 2014 (Local Time) from KHQU Reporting Station
Clear Clear  
Wind Chill: 49°   Ceiling: Unl
Heat Index: 49°   Visibility: 10mi
Dew Point: 46°   Wind: 0mph
Humidity: 91%   Direction: NA
Pressure: 30.18"   Gusts: NA
Location:  33.4134°N, 82.3106°W
Report Text: KHQU 200215Z AUTO 00000KT 10SM CLR 09/08 A3018 RMK AO1 T00920078
Loading
Personal Weather Stations






























Interactive Weather Map New forecast layout! Learn more

10-Day Weather Forecast

Advertisements
Track Severe Weather on mobile